Time,TemperatureF,DewpointF,PressureIn,WindDirection,WindDirectionDegrees,WindSpeedMPH,WindSpeedGustMPH,Humidity,HourlyPrecipIn,Conditions,Clouds,dailyrainin,SolarRadiationWatts/m^2,SoftwareType,DateUTC
2013-05-13 00:00:00,55.0,42.0,30.08,SE,138,4.0,-999.0,61,-99.99,,,-99.99,0.000000,,2013-05-13 06:00:00,
2013-05-13 00:52:00,55.0,42.0,30.08,SE,138,4.0,-999.0,61,-99.99,,,-99.99,0.000000,,2013-05-13 06:52:00,
2013-05-13 02:00:00,51.0,41.0,30.07,SE,146,5.0,-999.0,70,-99.99,,,-99.99,0.000000,,2013-05-13 08:00:00,
2013-05-13 02:52:00,51.0,41.0,30.07,SE,146,5.0,-999.0,70,-99.99,,,-99.99,0.000000,,2013-05-13 08:52:00,
2013-05-13 03:00:00,49.0,41.0,30.05,ESE,107,5.0,-999.0,74,-99.99,,,-99.99,0.000000,,2013-05-13 09:00:00,
2013-05-13 03:52:00,49.0,41.0,30.05,ESE,107,5.0,-999.0,74,-99.99,,,-99.99,0.000000,,2013-05-13 09:52:00,
2013-05-13 04:00:00,48.0,42.0,30.04,ESE,119,5.0,-999.0,77,-99.99,,,-99.99,0.000000,,2013-05-13 10:00:00,
2013-05-13 04:52:00,48.0,42.0,30.04,ESE,119,5.0,-999.0,77,-99.99,,,-99.99,0.000000,,2013-05-13 10:52:00,
2013-05-13 05:00:00,46.0,41.0,30.04,ESE,120,4.0,-999.0,82,-99.99,,,-99.99,0.000000,,2013-05-13 11:00:00,
2013-05-13 05:52:00,46.0,41.0,30.04,ESE,120,4.0,-999.0,82,-99.99,,,-99.99,0.000000,,2013-05-13 11:52:00,
2013-05-13 06:00:00,45.0,41.0,30.03,SE,131,2.0,-999.0,84,-99.99,,,-99.99,7.200000,,2013-05-13 12:00:00,
2013-05-13 06:52:00,45.0,41.0,30.03,SE,131,2.0,-999.0,84,-99.99,,,-99.99,7.200000,,2013-05-13 12:52:00,
2013-05-13 08:00:00,64.0,45.0,30.06,WSW,241,4.0,-999.0,50,-99.99,,,-99.99,221.699997,,2013-05-13 14:00:00,
2013-05-13 08:52:00,64.0,45.0,30.06,WSW,241,4.0,-999.0,50,-99.99,,,-99.99,221.699997,,2013-05-13 14:52:00,
2013-05-13 09:00:00,72.0,43.0,30.08,WNW,288,7.0,-999.0,35,-99.99,,,-99.99,395.100006,,2013-05-13 15:00:00,
2013-05-13 09:53:00,72.0,43.0,30.08,WNW,288,7.0,-999.0,35,-99.99,,,-99.99,395.100006,,2013-05-13 15:53:00,
2013-05-13 10:00:00,80.0,41.0,30.07,WNW,293,7.0,-999.0,25,-99.99,,,-99.99,544.200012,,2013-05-13 16:00:00,
2013-05-13 10:53:00,80.0,41.0,30.07,WNW,293,7.0,-999.0,25,-99.99,,,-99.99,544.200012,,2013-05-13 16:53:00,
2013-05-13 11:00:00,85.0,36.0,30.09,NW,309,7.0,-999.0,18,-99.99,,,-99.99,689.299988,,2013-05-13 17:00:00,
2013-05-13 11:54:00,85.0,36.0,30.09,NW,309,7.0,-999.0,18,-99.99,,,-99.99,689.299988,,2013-05-13 17:54:00,
2013-05-13 12:00:00,89.0,32.0,30.08,WNW,295,6.0,-999.0,13,-99.99,,,-99.99,822.000000,,2013-05-13 18:00:00,
2013-05-13 12:52:00,89.0,32.0,30.08,WNW,295,6.0,-999.0,13,-99.99,,,-99.99,822.000000,,2013-05-13 18:52:00,
2013-05-13 13:00:00,91.0,31.0,30.07,West,276,6.0,-999.0,12,-99.99,,,-99.99,896.000000,,2013-05-13 19:00:00,
2013-05-13 13:53:00,91.0,31.0,30.07,West,276,6.0,-999.0,12,-99.99,,,-99.99,896.000000,,2013-05-13 19:53:00,
2013-05-13 14:00:00,91.0,29.0,30.06,WSW,249,5.0,-999.0,11,-99.99,,,-99.99,795.000000,,2013-05-13 20:00:00,
2013-05-13 14:53:00,91.0,29.0,30.06,WSW,249,5.0,-999.0,11,-99.99,,,-99.99,795.000000,,2013-05-13 20:53:00,
2013-05-13 15:00:00,91.0,29.0,30.04,North,355,7.0,-999.0,11,-99.99,,,-99.99,718.000000,,2013-05-13 21:00:00,
2013-05-13 15:53:00,91.0,29.0,30.04,North,355,7.0,-999.0,11,-99.99,,,-99.99,718.000000,,2013-05-13 21:53:00,
2013-05-13 16:00:00,90.0,29.0,30.03,North,11,6.0,-999.0,11,-99.99,,,-99.99,511.399994,,2013-05-13 22:00:00,
2013-05-13 16:52:00,90.0,29.0,30.03,North,11,6.0,-999.0,11,-99.99,,,-99.99,511.399994,,2013-05-13 22:52:00,
2013-05-13 17:00:00,92.0,27.0,30.02,East,101,4.0,-999.0,10,-99.99,,,-99.99,589.400024,,2013-05-13 23:00:00,
2013-05-13 17:54:00,92.0,27.0,30.02,East,101,4.0,-999.0,10,-99.99,,,-99.99,589.400024,,2013-05-13 23:54:00,
2013-05-13 18:00:00,90.0,26.0,30.01,SW,226,6.0,-999.0,10,-99.99,,,-99.99,396.899994,,2013-05-14 00:00:00,
2013-05-13 18:52:00,90.0,26.0,30.01,SW,226,6.0,-999.0,10,-99.99,,,-99.99,396.899994,,2013-05-14 00:52:00,
2013-05-13 19:00:00,86.0,33.0,30.00,SSW,203,4.0,-999.0,15,-99.99,,,-99.99,162.500000,,2013-05-14 01:00:00,
2013-05-13 19:53:00,86.0,33.0,30.00,SSW,203,4.0,-999.0,15,-99.99,,,-99.99,162.500000,,2013-05-14 01:53:00,